CheckWX is a tool to help pilots better visualize weather data.  It is not intended as a substitute for an official pre-flight weather briefing.

07:45:48 UTC

KGLW METAR
Glasgow Municipal Airport
Glasgow, Kentucky, USA
Current

11 mins ago

KGLW 150735Z AUTO 00000KT 10SM CLR 16/12 A3020 RMK AO2 T01630118
Observed
Sep-15 @ 07:35 UTC
Visibility
10 SM
Flight Rules
VFR
Cloud Levels
  • Clear skies
Temperature
16°C / 61°F
Dewpoint
12°C / 54°F
Humidity
77%
Altimeter
30.2" Hg
Pressure
1022.72 hPa
Previous

31 mins ago

KGLW 150715Z AUTO 00000KT 10SM CLR 17/12 A3020 RMK AO2 LTG DSNT NW T01650119
Observed
Sep-15 @ 07:15 UTC
Visibility
10 SM
Flight Rules
VFR
Cloud Levels
  • Clear skies
Temperature
17°C / 63°F
Dewpoint
12°C / 54°F
Humidity
73%
Altimeter
30.2" Hg
Pressure
1022.72 hPa
Previous

51 mins ago

KGLW 150655Z AUTO 00000KT 10SM CLR 16/12 A3020 RMK AO2 T01610116
Observed
Sep-15 @ 06:55 UTC
Visibility
10 SM
Flight Rules
VFR
Cloud Levels
  • Clear skies
Temperature
16°C / 61°F
Dewpoint
12°C / 54°F
Humidity
77%
Altimeter
30.2" Hg
Pressure
1022.72 hPa